sensor_id;sensor_type;location;lat;lon;timestamp;P1;durP1;ratioP1;P2;durP2;ratioP2
21615;SDS011;10970;48.714;9.584;2022-12-07T00:01:24;6.47;;;5.88;;
21615;SDS011;10970;48.714;9.584;2022-12-07T00:03:52;8.05;;;6.32;;
21615;SDS011;10970;48.714;9.584;2022-12-07T00:06:19;6.88;;;6.28;;
21615;SDS011;10970;48.714;9.584;2022-12-07T00:08:46;9.53;;;5.57;;
21615;SDS011;10970;48.714;9.584;2022-12-07T00:11:14;6.47;;;5.88;;
21615;SDS011;10970;48.714;9.584;2022-12-07T00:13:42;7.07;;;6.40;;
21615;SDS011;10970;48.714;9.584;2022-12-07T00:16:09;6.03;;;5.53;;
21615;SDS011;10970;48.714;9.584;2022-12-07T00:18:42;7.65;;;6.07;;
21615;SDS011;10970;48.714;9.584;2022-12-07T00:21:09;6.45;;;5.28;;
21615;SDS011;10970;48.714;9.584;2022-12-07T00:23:37;6.25;;;5.47;;
21615;SDS011;10970;48.714;9.584;2022-12-07T00:26:10;7.97;;;6.10;;
21615;SDS011;10970;48.714;9.584;2022-12-07T00:28:38;8.35;;;6.28;;
21615;SDS011;10970;48.714;9.584;2022-12-07T00:31:11;7.00;;;6.07;;
21615;SDS011;10970;48.714;9.584;2022-12-07T00:33:38;6.95;;;6.25;;
21615;SDS011;10970;48.714;9.584;2022-12-07T00:36:08;8.63;;;6.70;;
21615;SDS011;10970;48.714;9.584;2022-12-07T00:38:36;7.63;;;5.50;;
21615;SDS011;10970;48.714;9.584;2022-12-07T00:41:04;8.40;;;6.05;;
21615;SDS011;10970;48.714;9.584;2022-12-07T00:43:31;6.30;;;5.70;;
21615;SDS011;10970;48.714;9.584;2022-12-07T00:45:57;13.00;;;6.10;;
21615;SDS011;10970;48.714;9.584;2022-12-07T00:48:23;9.25;;;7.18;;
21615;SDS011;10970;48.714;9.584;2022-12-07T00:50:49;9.68;;;6.95;;
21615;SDS011;10970;48.714;9.584;2022-12-07T00:53:15;7.30;;;6.68;;
21615;SDS011;10970;48.714;9.584;2022-12-07T00:55:42;8.80;;;7.38;;
21615;SDS011;10970;48.714;9.584;2022-12-07T00:58:08;8.07;;;7.38;;
21615;SDS011;10970;48.714;9.584;2022-12-07T01:00:38;7.57;;;6.20;;
21615;SDS011;10970;48.714;9.584;2022-12-07T01:03:06;7.28;;;6.13;;
21615;SDS011;10970;48.714;9.584;2022-12-07T01:05:33;6.90;;;6.22;;
21615;SDS011;10970;48.714;9.584;2022-12-07T01:07:59;9.30;;;6.90;;
21615;SDS011;10970;48.714;9.584;2022-12-07T01:10:26;8.57;;;7.60;;
21615;SDS011;10970;48.714;9.584;2022-12-07T01:12:52;8.38;;;6.45;;
21615;SDS011;10970;48.714;9.584;2022-12-07T01:15:18;13.00;;;7.83;;
21615;SDS011;10970;48.714;9.584;2022-12-07T01:17:44;12.30;;;7.83;;
21615;SDS011;10970;48.714;9.584;2022-12-07T01:20:10;9.50;;;7.77;;
21615;SDS011;10970;48.714;9.584;2022-12-07T01:22:39;13.23;;;6.85;;
21615;SDS011;10970;48.714;9.584;2022-12-07T01:25:06;10.55;;;7.93;;
21615;SDS011;10970;48.714;9.584;2022-12-07T01:27:33;8.10;;;6.82;;
21615;SDS011;10970;48.714;9.584;2022-12-07T01:30:00;9.07;;;7.88;;
21615;SDS011;10970;48.714;9.584;2022-12-07T01:32:26;11.45;;;8.30;;
21615;SDS011;10970;48.714;9.584;2022-12-07T01:34:52;8.20;;;7.15;;
21615;SDS011;10970;48.714;9.584;2022-12-07T01:37:18;11.80;;;7.40;;
21615;SDS011;10970;48.714;9.584;2022-12-07T01:39:43;9.40;;;8.30;;
21615;SDS011;10970;48.714;9.584;2022-12-07T01:42:10;8.43;;;7.43;;
21615;SDS011;10970;48.714;9.584;2022-12-07T01:47:56;9.18;;;8.02;;
21615;SDS011;10970;48.714;9.584;2022-12-07T01:50:24;9.50;;;7.28;;
21615;SDS011;10970;48.714;9.584;2022-12-07T01:52:52;8.50;;;7.60;;
21615;SDS011;10970;48.714;9.584;2022-12-07T01:55:21;8.23;;;7.20;;
21615;SDS011;10970;48.714;9.584;2022-12-07T01:57:49;7.63;;;6.82;;
21615;SDS011;10970;48.714;9.584;2022-12-07T02:00:18;8.60;;;7.70;;
21615;SDS011;10970;48.714;9.584;2022-12-07T02:05:22;7.88;;;6.60;;
21615;SDS011;10970;48.714;9.584;2022-12-07T02:07:49;6.95;;;6.35;;
21615;SDS011;10970;48.714;9.584;2022-12-07T02:10:21;8.30;;;6.60;;
21615;SDS011;10970;48.714;9.584;2022-12-07T02:12:53;8.88;;;7.00;;
21615;SDS011;10970;48.714;9.584;2022-12-07T02:24:24;7.28;;;6.50;;
21615;SDS011;10970;48.714;9.584;2022-12-07T02:29:45;14.00;;;8.83;;
21615;SDS011;10970;48.714;9.584;2022-12-07T02:32:16;8.80;;;7.35;;
21615;SDS011;10970;48.714;9.584;2022-12-07T02:35:11;9.88;;;7.55;;
21615;SDS011;10970;48.714;9.584;2022-12-07T02:43:10;9.98;;;7.60;;
21615;SDS011;10970;48.714;9.584;2022-12-07T02:45:44;12.25;;;9.25;;
21615;SDS011;10970;48.714;9.584;2022-12-07T02:48:13;8.60;;;7.32;;
21615;SDS011;10970;48.714;9.584;2022-12-07T02:50:45;10.95;;;8.27;;
21615;SDS011;10970;48.714;9.584;2022-12-07T02:55:57;9.05;;;7.38;;
21615;SDS011;10970;48.714;9.584;2022-12-07T02:58:37;8.45;;;7.35;;
21615;SDS011;10970;48.714;9.584;2022-12-07T03:07:18;6.55;;;5.85;;
21615;SDS011;10970;48.714;9.584;2022-12-07T03:12:37;13.73;;;7.85;;
21615;SDS011;10970;48.714;9.584;2022-12-07T03:17:54;14.18;;;8.82;;
21615;SDS011;10970;48.714;9.584;2022-12-07T03:20:22;10.75;;;7.78;;
21615;SDS011;10970;48.714;9.584;2022-12-07T03:22:49;8.60;;;7.70;;
21615;SDS011;10970;48.714;9.584;2022-12-07T03:25:17;11.55;;;8.85;;
21615;SDS011;10970;48.714;9.584;2022-12-07T03:30:22;12.48;;;9.05;;
21615;SDS011;10970;48.714;9.584;2022-12-07T03:35:28;9.67;;;7.90;;
21615;SDS011;10970;48.714;9.584;2022-12-07T03:38:34;9.40;;;7.75;;
21615;SDS011;10970;48.714;9.584;2022-12-07T03:41:18;12.60;;;9.18;;
21615;SDS011;10970;48.714;9.584;2022-12-07T03:43:47;13.88;;;8.15;;
21615;SDS011;10970;48.714;9.584;2022-12-07T03:51:47;12.93;;;9.60;;
21615;SDS011;10970;48.714;9.584;2022-12-07T03:56:48;11.77;;;8.35;;
21615;SDS011;10970;48.714;9.584;2022-12-07T03:59:15;12.07;;;9.48;;
21615;SDS011;10970;48.714;9.584;2022-12-07T04:01:43;12.20;;;8.27;;
21615;SDS011;10970;48.714;9.584;2022-12-07T04:04:09;8.88;;;7.50;;
21615;SDS011;10970;48.714;9.584;2022-12-07T04:06:35;15.40;;;8.20;;
21615;SDS011;10970;48.714;9.584;2022-12-07T04:09:01;13.13;;;9.10;;
21615;SDS011;10970;48.714;9.584;2022-12-07T04:11:27;12.70;;;8.47;;
21615;SDS011;10970;48.714;9.584;2022-12-07T04:13:53;12.83;;;8.50;;
21615;SDS011;10970;48.714;9.584;2022-12-07T04:16:37;12.65;;;9.18;;
21615;SDS011;10970;48.714;9.584;2022-12-07T04:19:02;10.70;;;8.80;;
21615;SDS011;10970;48.714;9.584;2022-12-07T04:21:28;12.90;;;8.97;;
21615;SDS011;10970;48.714;9.584;2022-12-07T04:23:53;8.97;;;7.83;;
21615;SDS011;10970;48.714;9.584;2022-12-07T04:26:19;11.47;;;8.63;;
21615;SDS011;10970;48.714;9.584;2022-12-07T04:28:44;12.60;;;9.60;;
21615;SDS011;10970;48.714;9.584;2022-12-07T04:31:10;12.10;;;9.33;;
21615;SDS011;10970;48.714;9.584;2022-12-07T04:33:36;14.40;;;9.40;;
21615;SDS011;10970;48.714;9.584;2022-12-07T04:36:01;11.23;;;8.47;;
21615;SDS011;10970;48.714;9.584;2022-12-07T04:38:27;13.13;;;9.73;;
21615;SDS011;10970;48.714;9.584;2022-12-07T04:40:52;12.90;;;9.77;;
21615;SDS011;10970;48.714;9.584;2022-12-07T04:43:18;11.17;;;9.10;;
21615;SDS011;10970;48.714;9.584;2022-12-07T04:45:47;13.33;;;9.43;;
21615;SDS011;10970;48.714;9.584;2022-12-07T04:48:13;13.10;;;8.93;;
21615;SDS011;10970;48.714;9.584;2022-12-07T04:50:39;11.73;;;8.70;;
21615;SDS011;10970;48.714;9.584;2022-12-07T04:53:05;11.93;;;8.43;;
21615;SDS011;10970;48.714;9.584;2022-12-07T04:55:31;12.83;;;8.83;;
21615;SDS011;10970;48.714;9.584;2022-12-07T04:57:56;11.10;;;9.33;;
21615;SDS011;10970;48.714;9.584;2022-12-07T05:00:22;15.60;;;8.80;;
21615;SDS011;10970;48.714;9.584;2022-12-07T05:02:47;14.40;;;9.43;;
21615;SDS011;10970;48.714;9.584;2022-12-07T05:05:13;10.57;;;8.53;;
21615;SDS011;10970;48.714;9.584;2022-12-07T05:07:39;12.40;;;8.83;;
21615;SDS011;10970;48.714;9.584;2022-12-07T05:10:05;14.80;;;10.67;;
21615;SDS011;10970;48.714;9.584;2022-12-07T05:12:31;12.90;;;9.32;;
21615;SDS011;10970;48.714;9.584;2022-12-07T05:14:56;12.13;;;8.43;;
21615;SDS011;10970;48.714;9.584;2022-12-07T05:17:22;12.80;;;10.40;;
21615;SDS011;10970;48.714;9.584;2022-12-07T05:19:47;13.60;;;10.13;;
21615;SDS011;10970;48.714;9.584;2022-12-07T05:22:13;15.20;;;10.50;;
21615;SDS011;10970;48.714;9.584;2022-12-07T05:24:40;13.15;;;9.63;;
21615;SDS011;10970;48.714;9.584;2022-12-07T05:27:05;11.60;;;9.37;;
21615;SDS011;10970;48.714;9.584;2022-12-07T05:29:31;12.60;;;8.27;;
21615;SDS011;10970;48.714;9.584;2022-12-07T05:31:57;9.27;;;7.87;;
21615;SDS011;10970;48.714;9.584;2022-12-07T05:34:22;11.97;;;8.73;;
21615;SDS011;10970;48.714;9.584;2022-12-07T05:36:48;12.97;;;9.97;;
21615;SDS011;10970;48.714;9.584;2022-12-07T05:39:15;12.65;;;8.93;;
21615;SDS011;10970;48.714;9.584;2022-12-07T05:41:40;13.27;;;8.40;;
21615;SDS011;10970;48.714;9.584;2022-12-07T05:44:25;12.82;;;10.13;;
21615;SDS011;10970;48.714;9.584;2022-12-07T05:46:51;12.20;;;8.77;;
21615;SDS011;10970;48.714;9.584;2022-12-07T05:49:16;15.33;;;9.87;;
21615;SDS011;10970;48.714;9.584;2022-12-07T05:51:42;16.73;;;10.80;;
21615;SDS011;10970;48.714;9.584;2022-12-07T05:54:08;16.50;;;10.37;;
21615;SDS011;10970;48.714;9.584;2022-12-07T05:56:33;16.33;;;10.53;;
21615;SDS011;10970;48.714;9.584;2022-12-07T05:58:59;15.27;;;10.60;;
21615;SDS011;10970;48.714;9.584;2022-12-07T06:01:43;20.42;;;14.30;;
21615;SDS011;10970;48.714;9.584;2022-12-07T06:04:09;14.43;;;10.80;;
21615;SDS011;10970;48.714;9.584;2022-12-07T06:06:34;15.57;;;11.00;;
21615;SDS011;10970;48.714;9.584;2022-12-07T06:09:00;12.43;;;9.23;;
21615;SDS011;10970;48.714;9.584;2022-12-07T06:11:25;13.70;;;9.63;;
21615;SDS011;10970;48.714;9.584;2022-12-07T06:14:09;17.30;;;9.95;;
21615;SDS011;10970;48.714;9.584;2022-12-07T06:16:35;13.97;;;8.33;;
21615;SDS011;10970;48.714;9.584;2022-12-07T06:19:01;12.93;;;9.63;;
21615;SDS011;10970;48.714;9.584;2022-12-07T06:21:26;16.33;;;9.43;;
21615;SDS011;10970;48.714;9.584;2022-12-07T06:23:52;10.70;;;8.60;;
21615;SDS011;10970;48.714;9.584;2022-12-07T06:26:18;12.30;;;8.50;;
21615;SDS011;10970;48.714;9.584;2022-12-07T06:28:43;14.00;;;8.70;;
21615;SDS011;10970;48.714;9.584;2022-12-07T06:31:09;9.03;;;7.97;;
21615;SDS011;10970;48.714;9.584;2022-12-07T06:33:35;13.00;;;9.97;;
21615;SDS011;10970;48.714;9.584;2022-12-07T06:36:00;13.50;;;9.00;;
21615;SDS011;10970;48.714;9.584;2022-12-07T06:38:26;13.80;;;8.87;;
21615;SDS011;10970;48.714;9.584;2022-12-07T06:40:51;11.70;;;8.10;;
21615;SDS011;10970;48.714;9.584;2022-12-07T06:43:17;10.27;;;8.53;;
21615;SDS011;10970;48.714;9.584;2022-12-07T06:45:43;12.60;;;9.27;;
21615;SDS011;10970;48.714;9.584;2022-12-07T06:48:08;11.37;;;9.20;;
21615;SDS011;10970;48.714;9.584;2022-12-07T06:50:34;13.20;;;9.90;;
21615;SDS011;10970;48.714;9.584;2022-12-07T06:52:59;9.03;;;7.77;;
21615;SDS011;10970;48.714;9.584;2022-12-07T06:55:25;13.87;;;9.90;;
21615;SDS011;10970;48.714;9.584;2022-12-07T06:57:51;15.13;;;9.03;;
21615;SDS011;10970;48.714;9.584;2022-12-07T07:00:16;9.33;;;7.87;;
21615;SDS011;10970;48.714;9.584;2022-12-07T07:02:42;10.57;;;8.67;;
21615;SDS011;10970;48.714;9.584;2022-12-07T07:05:08;14.60;;;9.20;;
21615;SDS011;10970;48.714;9.584;2022-12-07T07:07:33;12.40;;;8.80;;
21615;SDS011;10970;48.714;9.584;2022-12-07T07:09:59;14.87;;;8.90;;
21615;SDS011;10970;48.714;9.584;2022-12-07T07:12:25;10.30;;;8.60;;
21615;SDS011;10970;48.714;9.584;2022-12-07T07:14:50;12.40;;;8.30;;
21615;SDS011;10970;48.714;9.584;2022-12-07T07:17:16;18.20;;;9.30;;
21615;SDS011;10970;48.714;9.584;2022-12-07T07:19:41;14.37;;;10.17;;
21615;SDS011;10970;48.714;9.584;2022-12-07T07:22:07;12.50;;;9.30;;
21615;SDS011;10970;48.714;9.584;2022-12-07T07:24:33;14.77;;;9.30;;
21615;SDS011;10970;48.714;9.584;2022-12-07T07:26:58;21.80;;;10.27;;
21615;SDS011;10970;48.714;9.584;2022-12-07T07:29:24;10.70;;;9.27;;
21615;SDS011;10970;48.714;9.584;2022-12-07T07:31:50;13.67;;;10.03;;
21615;SDS011;10970;48.714;9.584;2022-12-07T07:34:15;11.53;;;10.33;;
21615;SDS011;10970;48.714;9.584;2022-12-07T07:36:41;24.13;;;10.73;;
21615;SDS011;10970;48.714;9.584;2022-12-07T07:39:06;13.60;;;11.77;;
21615;SDS011;10970;48.714;9.584;2022-12-07T07:41:32;16.57;;;10.73;;
21615;SDS011;10970;48.714;9.584;2022-12-07T07:43:58;14.77;;;9.97;;
21615;SDS011;10970;48.714;9.584;2022-12-07T07:46:23;17.60;;;11.50;;
21615;SDS011;10970;48.714;9.584;2022-12-07T07:48:49;14.10;;;10.53;;
21615;SDS011;10970;48.714;9.584;2022-12-07T07:51:14;17.70;;;11.70;;
21615;SDS011;10970;48.714;9.584;2022-12-07T07:53:40;14.07;;;10.73;;
21615;SDS011;10970;48.714;9.584;2022-12-07T07:56:06;12.50;;;9.20;;
21615;SDS011;10970;48.714;9.584;2022-12-07T07:58:31;21.27;;;10.27;;
21615;SDS011;10970;48.714;9.584;2022-12-07T08:01:02;15.60;;;9.03;;
21615;SDS011;10970;48.714;9.584;2022-12-07T08:03:29;12.48;;;9.25;;
21615;SDS011;10970;48.714;9.584;2022-12-07T08:05:55;13.27;;;10.43;;
21615;SDS011;10970;48.714;9.584;2022-12-07T08:08:20;11.40;;;8.03;;
21615;SDS011;10970;48.714;9.584;2022-12-07T08:10:46;11.43;;;8.90;;
21615;SDS011;10970;48.714;9.584;2022-12-07T08:13:11;10.07;;;7.50;;
21615;SDS011;10970;48.714;9.584;2022-12-07T08:15:40;10.70;;;8.27;;
21615;SDS011;10970;48.714;9.584;2022-12-07T08:18:10;12.52;;;9.25;;
21615;SDS011;10970;48.714;9.584;2022-12-07T08:20:37;16.27;;;9.98;;
21615;SDS011;10970;48.714;9.584;2022-12-07T08:23:04;11.55;;;8.57;;
21615;SDS011;10970;48.714;9.584;2022-12-07T08:25:31;10.00;;;7.80;;
21615;SDS011;10970;48.714;9.584;2022-12-07T08:27:57;9.85;;;8.15;;
21615;SDS011;10970;48.714;9.584;2022-12-07T08:30:23;14.87;;;8.67;;
21615;SDS011;10970;48.714;9.584;2022-12-07T08:32:49;12.33;;;8.03;;
21615;SDS011;10970;48.714;9.584;2022-12-07T08:35:14;16.37;;;8.70;;
21615;SDS011;10970;48.714;9.584;2022-12-07T08:37:40;13.15;;;8.93;;
21615;SDS011;10970;48.714;9.584;2022-12-07T08:40:07;10.97;;;8.27;;
21615;SDS011;10970;48.714;9.584;2022-12-07T08:42:34;10.35;;;7.00;;
21615;SDS011;10970;48.714;9.584;2022-12-07T08:45:09;14.60;;;10.68;;
21615;SDS011;10970;48.714;9.584;2022-12-07T08:47:37;11.75;;;8.93;;
21615;SDS011;10970;48.714;9.584;2022-12-07T08:50:09;13.02;;;8.98;;
21615;SDS011;10970;48.714;9.584;2022-12-07T08:52:36;10.50;;;8.73;;
21615;SDS011;10970;48.714;9.584;2022-12-07T08:55:03;15.48;;;8.48;;
21615;SDS011;10970;48.714;9.584;2022-12-07T08:57:30;14.50;;;8.60;;
21615;SDS011;10970;48.714;9.584;2022-12-07T08:59:59;11.60;;;8.93;;
21615;SDS011;10970;48.714;9.584;2022-12-07T09:02:25;11.20;;;7.80;;
21615;SDS011;10970;48.714;9.584;2022-12-07T09:04:51;11.13;;;8.53;;
21615;SDS011;10970;48.714;9.584;2022-12-07T09:07:16;10.97;;;7.70;;
21615;SDS011;10970;48.714;9.584;2022-12-07T09:09:43;9.97;;;8.43;;
21615;SDS011;10970;48.714;9.584;2022-12-07T09:12:09;14.65;;;9.68;;
21615;SDS011;10970;48.714;9.584;2022-12-07T09:14:35;10.18;;;8.60;;
21615;SDS011;10970;48.714;9.584;2022-12-07T09:17:07;11.90;;;7.40;;
21615;SDS011;10970;48.714;9.584;2022-12-07T09:19:35;10.75;;;8.85;;
21615;SDS011;10970;48.714;9.584;2022-12-07T09:22:00;11.33;;;9.00;;
21615;SDS011;10970;48.714;9.584;2022-12-07T09:24:27;11.73;;;8.43;;
21615;SDS011;10970;48.714;9.584;2022-12-07T09:26:53;8.93;;;7.30;;
21615;SDS011;10970;48.714;9.584;2022-12-07T09:29:19;9.13;;;7.90;;
21615;SDS011;10970;48.714;9.584;2022-12-07T09:31:44;9.07;;;6.90;;
21615;SDS011;10970;48.714;9.584;2022-12-07T09:34:10;9.40;;;7.30;;
21615;SDS011;10970;48.714;9.584;2022-12-07T09:36:36;12.37;;;7.27;;
21615;SDS011;10970;48.714;9.584;2022-12-07T09:39:02;8.87;;;6.73;;
21615;SDS011;10970;48.714;9.584;2022-12-07T09:41:29;14.27;;;8.82;;
21615;SDS011;10970;48.714;9.584;2022-12-07T09:43:59;9.43;;;6.28;;
21615;SDS011;10970;48.714;9.584;2022-12-07T09:46:31;10.95;;;7.40;;
21615;SDS011;10970;48.714;9.584;2022-12-07T09:49:03;9.35;;;7.97;;
21615;SDS011;10970;48.714;9.584;2022-12-07T09:51:30;6.28;;;5.65;;
21615;SDS011;10970;48.714;9.584;2022-12-07T09:53:56;9.60;;;7.78;;
21615;SDS011;10970;48.714;9.584;2022-12-07T09:56:23;9.93;;;7.57;;
21615;SDS011;10970;48.714;9.584;2022-12-07T09:58:50;10.05;;;8.13;;
21615;SDS011;10970;48.714;9.584;2022-12-07T10:01:23;9.65;;;6.47;;
21615;SDS011;10970;48.714;9.584;2022-12-07T10:03:49;8.17;;;6.00;;
21615;SDS011;10970;48.714;9.584;2022-12-07T10:06:18;6.78;;;6.13;;
21615;SDS011;10970;48.714;9.584;2022-12-07T10:08:44;7.50;;;5.22;;
21615;SDS011;10970;48.714;9.584;2022-12-07T10:11:10;6.03;;;5.40;;
21615;SDS011;10970;48.714;9.584;2022-12-07T10:13:40;10.52;;;6.53;;
21615;SDS011;10970;48.714;9.584;2022-12-07T10:18:52;10.15;;;6.50;;
21615;SDS011;10970;48.714;9.584;2022-12-07T10:26:40;8.07;;;6.10;;
21615;SDS011;10970;48.714;9.584;2022-12-07T10:34:23;7.43;;;5.63;;
21615;SDS011;10970;48.714;9.584;2022-12-07T10:42:16;6.82;;;5.50;;
21615;SDS011;10970;48.714;9.584;2022-12-07T10:44:49;8.00;;;5.82;;
21615;SDS011;10970;48.714;9.584;2022-12-07T10:47:34;5.80;;;5.20;;
21615;SDS011;10970;48.714;9.584;2022-12-07T10:52:53;12.63;;;6.93;;
21615;SDS011;10970;48.714;9.584;2022-12-07T11:01:30;5.32;;;4.60;;
21615;SDS011;10970;48.714;9.584;2022-12-07T11:04:21;6.85;;;4.65;;
21615;SDS011;10970;48.714;9.584;2022-12-07T11:14:53;6.78;;;4.90;;
21615;SDS011;10970;48.714;9.584;2022-12-07T11:25:43;9.57;;;5.22;;
21615;SDS011;10970;48.714;9.584;2022-12-07T11:28:33;5.78;;;4.80;;
21615;SDS011;10970;48.714;9.584;2022-12-07T11:33:35;7.73;;;5.40;;
21615;SDS011;10970;48.714;9.584;2022-12-07T11:42:05;6.70;;;5.15;;
21615;SDS011;10970;48.714;9.584;2022-12-07T11:47:10;6.22;;;4.10;;
21615;SDS011;10970;48.714;9.584;2022-12-07T11:49:54;6.85;;;5.40;;
21615;SDS011;10970;48.714;9.584;2022-12-07T11:54:55;13.13;;;6.50;;
21615;SDS011;10970;48.714;9.584;2022-12-07T11:57:25;5.80;;;4.85;;
21615;SDS011;10970;48.714;9.584;2022-12-07T12:00:01;7.13;;;5.20;;
21615;SDS011;10970;48.714;9.584;2022-12-07T12:03:15;5.00;;;4.60;;
21615;SDS011;10970;48.714;9.584;2022-12-07T12:05:26;6.72;;;5.60;;
21615;SDS011;10970;48.714;9.584;2022-12-07T12:19:40;7.03;;;5.32;;
21615;SDS011;10970;48.714;9.584;2022-12-07T12:22:14;3.80;;;3.50;;
21615;SDS011;10970;48.714;9.584;2022-12-07T12:24:43;4.82;;;4.32;;
21615;SDS011;10970;48.714;9.584;2022-12-07T12:27:26;6.43;;;5.20;;
21615;SDS011;10970;48.714;9.584;2022-12-07T12:29:56;7.68;;;5.45;;
21615;SDS011;10970;48.714;9.584;2022-12-07T12:35:22;6.45;;;5.28;;
21615;SDS011;10970;48.714;9.584;2022-12-07T12:37:55;6.40;;;4.70;;
21615;SDS011;10970;48.714;9.584;2022-12-07T12:40:43;4.55;;;4.07;;
21615;SDS011;10970;48.714;9.584;2022-12-07T12:48:55;7.40;;;5.43;;
21615;SDS011;10970;48.714;9.584;2022-12-07T12:51:40;10.60;;;6.75;;
21615;SDS011;10970;48.714;9.584;2022-12-07T13:12:58;7.75;;;5.00;;
21615;SDS011;10970;48.714;9.584;2022-12-07T13:20:56;7.88;;;6.03;;
21615;SDS011;10970;48.714;9.584;2022-12-07T13:29:13;7.75;;;4.60;;
21615;SDS011;10970;48.714;9.584;2022-12-07T13:31:52;7.60;;;4.70;;
21615;SDS011;10970;48.714;9.584;2022-12-07T13:36:57;4.97;;;4.05;;
21615;SDS011;10970;48.714;9.584;2022-12-07T13:39:25;3.72;;;3.38;;
21615;SDS011;10970;48.714;9.584;2022-12-07T13:41:52;7.05;;;4.65;;
21615;SDS011;10970;48.714;9.584;2022-12-07T13:44:20;5.43;;;4.93;;
21615;SDS011;10970;48.714;9.584;2022-12-07T13:49:16;8.40;;;7.23;;
21615;SDS011;10970;48.714;9.584;2022-12-07T13:51:43;6.78;;;4.43;;
21615;SDS011;10970;48.714;9.584;2022-12-07T13:54:09;5.93;;;4.47;;
21615;SDS011;10970;48.714;9.584;2022-12-07T13:56:37;5.03;;;4.32;;
21615;SDS011;10970;48.714;9.584;2022-12-07T13:59:14;5.78;;;4.90;;
21615;SDS011;10970;48.714;9.584;2022-12-07T14:01:49;6.82;;;4.93;;
21615;SDS011;10970;48.714;9.584;2022-12-07T14:04:27;5.97;;;4.75;;
21615;SDS011;10970;48.714;9.584;2022-12-07T14:06:59;7.57;;;5.25;;
21615;SDS011;10970;48.714;9.584;2022-12-07T14:09:26;6.90;;;4.22;;
21615;SDS011;10970;48.714;9.584;2022-12-07T14:11:54;6.63;;;5.32;;
21615;SDS011;10970;48.714;9.584;2022-12-07T14:14:29;5.10;;;4.60;;
21615;SDS011;10970;48.714;9.584;2022-12-07T14:19:40;5.43;;;4.80;;
21615;SDS011;10970;48.714;9.584;2022-12-07T14:22:07;4.22;;;3.83;;
21615;SDS011;10970;48.714;9.584;2022-12-07T14:24:43;5.40;;;4.82;;
21615;SDS011;10970;48.714;9.584;2022-12-07T14:27:22;7.28;;;5.72;;
21615;SDS011;10970;48.714;9.584;2022-12-07T14:29:51;6.75;;;5.03;;
21615;SDS011;10970;48.714;9.584;2022-12-07T14:34:56;5.70;;;4.72;;
21615;SDS011;10970;48.714;9.584;2022-12-07T14:37:26;8.18;;;5.70;;
21615;SDS011;10970;48.714;9.584;2022-12-07T14:39:53;5.97;;;5.47;;
21615;SDS011;10970;48.714;9.584;2022-12-07T14:42:19;8.60;;;6.20;;
21615;SDS011;10970;48.714;9.584;2022-12-07T14:44:47;7.03;;;5.50;;
21615;SDS011;10970;48.714;9.584;2022-12-07T14:47:12;6.70;;;5.73;;
21615;SDS011;10970;48.714;9.584;2022-12-07T14:49:38;8.87;;;6.77;;
21615;SDS011;10970;48.714;9.584;2022-12-07T14:52:04;9.37;;;6.53;;
21615;SDS011;10970;48.714;9.584;2022-12-07T14:54:31;9.85;;;6.10;;
21615;SDS011;10970;48.714;9.584;2022-12-07T14:56:57;8.98;;;6.72;;
21615;SDS011;10970;48.714;9.584;2022-12-07T14:59:23;9.17;;;6.53;;
21615;SDS011;10970;48.714;9.584;2022-12-07T15:01:49;11.63;;;7.77;;
21615;SDS011;10970;48.714;9.584;2022-12-07T15:04:15;7.70;;;6.30;;
21615;SDS011;10970;48.714;9.584;2022-12-07T15:06:40;8.10;;;6.67;;
21615;SDS011;10970;48.714;9.584;2022-12-07T15:09:09;11.60;;;7.22;;
21615;SDS011;10970;48.714;9.584;2022-12-07T15:11:36;8.43;;;5.50;;
21615;SDS011;10970;48.714;9.584;2022-12-07T15:14:01;8.40;;;6.50;;
21615;SDS011;10970;48.714;9.584;2022-12-07T15:16:33;11.20;;;8.52;;
21615;SDS011;10970;48.714;9.584;2022-12-07T15:19:09;8.02;;;6.20;;
21615;SDS011;10970;48.714;9.584;2022-12-07T15:21:37;6.47;;;5.53;;
21615;SDS011;10970;48.714;9.584;2022-12-07T15:24:03;9.63;;;6.77;;
21615;SDS011;10970;48.714;9.584;2022-12-07T15:26:28;7.40;;;6.57;;
21615;SDS011;10970;48.714;9.584;2022-12-07T15:28:54;6.97;;;5.90;;
21615;SDS011;10970;48.714;9.584;2022-12-07T15:31:20;8.57;;;6.23;;
21615;SDS011;10970;48.714;9.584;2022-12-07T15:33:45;7.33;;;6.50;;
21615;SDS011;10970;48.714;9.584;2022-12-07T15:36:18;13.30;;;6.43;;
21615;SDS011;10970;48.714;9.584;2022-12-07T15:38:48;8.70;;;7.00;;
21615;SDS011;10970;48.714;9.584;2022-12-07T15:41:14;6.95;;;5.57;;
21615;SDS011;10970;48.714;9.584;2022-12-07T15:43:40;8.90;;;7.20;;
21615;SDS011;10970;48.714;9.584;2022-12-07T15:46:31;8.60;;;6.65;;
21615;SDS011;10970;48.714;9.584;2022-12-07T15:48:58;6.78;;;5.57;;
21615;SDS011;10970;48.714;9.584;2022-12-07T15:51:24;6.68;;;5.97;;
21615;SDS011;10970;48.714;9.584;2022-12-07T15:53:50;10.33;;;6.17;;
21615;SDS011;10970;48.714;9.584;2022-12-07T15:56:16;7.50;;;6.47;;
21615;SDS011;10970;48.714;9.584;2022-12-07T15:58:42;8.70;;;5.77;;
21615;SDS011;10970;48.714;9.584;2022-12-07T16:01:14;10.07;;;6.73;;
21615;SDS011;10970;48.714;9.584;2022-12-07T16:03:41;10.07;;;6.93;;
21615;SDS011;10970;48.714;9.584;2022-12-07T16:06:07;8.63;;;5.57;;
21615;SDS011;10970;48.714;9.584;2022-12-07T16:08:33;10.20;;;6.70;;
21615;SDS011;10970;48.714;9.584;2022-12-07T16:10:59;9.60;;;6.37;;
21615;SDS011;10970;48.714;9.584;2022-12-07T16:13:24;7.73;;;5.37;;
21615;SDS011;10970;48.714;9.584;2022-12-07T16:15:50;9.17;;;6.53;;
21615;SDS011;10970;48.714;9.584;2022-12-07T16:18:16;9.70;;;6.20;;
21615;SDS011;10970;48.714;9.584;2022-12-07T16:20:41;9.87;;;5.37;;
21615;SDS011;10970;48.714;9.584;2022-12-07T16:23:07;10.00;;;6.87;;
21615;SDS011;10970;48.714;9.584;2022-12-07T16:25:33;7.00;;;5.70;;
21615;SDS011;10970;48.714;9.584;2022-12-07T16:28:04;7.50;;;6.80;;
21615;SDS011;10970;48.714;9.584;2022-12-07T16:30:30;7.90;;;6.57;;
21615;SDS011;10970;48.714;9.584;2022-12-07T16:32:56;12.55;;;9.15;;
21615;SDS011;10970;48.714;9.584;2022-12-07T16:35:21;9.03;;;6.50;;
21615;SDS011;10970;48.714;9.584;2022-12-07T16:37:47;7.57;;;6.77;;
21615;SDS011;10970;48.714;9.584;2022-12-07T16:40:12;11.63;;;8.90;;
21615;SDS011;10970;48.714;9.584;2022-12-07T16:42:38;11.07;;;8.30;;
21615;SDS011;10970;48.714;9.584;2022-12-07T16:45:04;11.37;;;8.27;;
21615;SDS011;10970;48.714;9.584;2022-12-07T16:47:30;13.05;;;7.80;;
21615;SDS011;10970;48.714;9.584;2022-12-07T16:49:56;13.67;;;9.53;;
21615;SDS011;10970;48.714;9.584;2022-12-07T16:52:21;10.13;;;7.03;;
21615;SDS011;10970;48.714;9.584;2022-12-07T16:54:47;8.80;;;7.67;;
21615;SDS011;10970;48.714;9.584;2022-12-07T16:57:14;12.40;;;8.30;;
21615;SDS011;10970;48.714;9.584;2022-12-07T16:59:40;13.23;;;8.73;;
21615;SDS011;10970;48.714;9.584;2022-12-07T17:02:06;14.70;;;8.83;;
21615;SDS011;10970;48.714;9.584;2022-12-07T17:04:34;13.77;;;10.40;;
21615;SDS011;10970;48.714;9.584;2022-12-07T17:07:00;11.30;;;7.35;;
21615;SDS011;10970;48.714;9.584;2022-12-07T17:09:26;12.43;;;7.90;;
21615;SDS011;10970;48.714;9.584;2022-12-07T17:11:52;16.17;;;7.70;;
21615;SDS011;10970;48.714;9.584;2022-12-07T17:14:17;13.40;;;9.43;;
21615;SDS011;10970;48.714;9.584;2022-12-07T17:17:01;13.05;;;9.30;;
21615;SDS011;10970;48.714;9.584;2022-12-07T17:19:27;12.50;;;8.73;;
21615;SDS011;10970;48.714;9.584;2022-12-07T17:21:53;11.20;;;7.60;;
21615;SDS011;10970;48.714;9.584;2022-12-07T17:24:19;14.90;;;9.93;;
21615;SDS011;10970;48.714;9.584;2022-12-07T17:26:44;13.97;;;9.57;;
21615;SDS011;10970;48.714;9.584;2022-12-07T17:29:11;13.38;;;9.60;;
21615;SDS011;10970;48.714;9.584;2022-12-07T17:31:38;18.30;;;10.10;;
21615;SDS011;10970;48.714;9.584;2022-12-07T17:34:07;14.10;;;9.50;;
21615;SDS011;10970;48.714;9.584;2022-12-07T17:36:37;14.45;;;8.93;;